Strona główna
Zdjęcia satelitarne 15-dni prognozyKlimatMeteorologia morska Cyklony Błyskawica LotniskoFAQ Gazetka O
Pogoda : Europa Afryka Ameryka Północna Ameryka Południowa Azja Australia-Oceania Inny
Języki Kontakt

Doncaster Sheffield, Anglia

Robin Hood

Szerokość geograficzna: 53-29N, Długość geograficzna: 001-00W, wysokość: 17 m


METAR: EGCN 301720Z 16008KT 9999 FEW048 17/15 Q1017
TAF: EGCN 301701Z 3018/3103 19010KT 9999 BKN040 BECMG 3018/3021 6000 PROB40 3018/3103 4000 BR BKN004

czas: 18:09 (18:09 UTC)

Aktualna obserwacja pogody

Raport powstał 49 minut temu, godzina 17:20 UTC
Wiatr 8 kt od południowo-południowy wschód
Temperatura 17°C
Wilgotność 88%
Ciśnienie 1017 hPa
Widzialność 10 km lub więcej
Mało chmury na wysokości 4800 ft

Jednostka miary

Prognoza

Raport powstał 1 godzina i 8 minut temu, godzina 17:01 UTC
Prognoza ważna od 30 godzina 18 UTC do 31 godzina 03 UTC
Wiatr 10 kt od południe
Widzialność 10 km lub więcej
Przerywane chmury na wysokości 4000 ft
Stopniowe zmiany
od 30 godzina 18 UTC do 30 godzina 21 UTC
Widzialność: 6000 m
Prawdopodobieństwo 40%
od 30 godzina 18 UTC do 31 godzina 03 UTC
Widzialność: 4000 m
Przerywane chmury na wysokości 400 ft
zamglenie
Informacje na tej stronie internetowej podlegają klauzuli o wyłączeniu odpowiedzialności
Pogoda : Europa Afryka Ameryka Północna Ameryka Południowa Azja Australia-Oceania Inny
Zdjęcia satelitarne 15-dni prognozyKlimatMeteorologia morska Cyklony Błyskawica LotniskoFAQ Języki Kontakt Gazetka O